This is the latest recevied weather packets stored in our database for station/object VK2OB. If no packets are shown the sender has not sent any weather packets the latest 10 day(s).
| Time | Temp. | Humidity | Pressure | Rain* | Wind** | Luminosity | Snow |
|---|---|---|---|---|---|---|---|
| 1777517777 | 24.44° C | 58% | 1028.8 hPa | 0 mm | - | - | - |
| 1777517477 | 25° C | 56% | 1028.8 hPa | 0 mm | - | - | - |
| 1777517179 | 25.56° C | 54% | 1029 hPa | 0 mm | - | - | - |
| 1777516880 | 25.56° C | 54% | 1029 hPa | 0 mm | - | - | - |
| 1777516581 | 25.56° C | 54% | 1029 hPa | 0 mm | - | - | - |
| 1777516282 | 25° C | 52% | 1029.1 hPa | 0 mm | - | - | - |
| 1777515983 | 25° C | 52% | 1029.2 hPa | 0 mm | - | - | - |
| 1777515683 | 25° C | 52% | 1029.3 hPa | 0 mm | - | - | - |
| 1777515385 | 25° C | 51% | 1029.3 hPa | 0 mm | - | - | - |
| 1777515086 | 26.11° C | 49% | 1029.4 hPa | 0 mm | - | - | - |
| 1777514787 | 27.22° C | 46% | 1029.5 hPa | 0 mm | - | - | - |
| 1777514490 | 27.78° C | 43% | 1029.5 hPa | 0 mm | - | - | - |
| 1777514189 | 28.33° C | 40% | 1029.6 hPa | 0 mm | - | - | - |
| 1777513889 | 29.44° C | 40% | 1029.7 hPa | 0 mm | - | - | - |
| 1777513590 | 29.44° C | 39% | 1029.8 hPa | 0 mm | - | - | - |
| 1777512993 | 30° C | 37% | 1030 hPa | 0 mm | - | - | - |
| 1777512694 | 30° C | 40% | 1030.1 hPa | 0 mm | - | - | - |
| 1777512395 | 30° C | 43% | 1030.1 hPa | 0 mm | - | - | - |
| 1777512096 | 28.89° C | 45% | 1030.2 hPa | 0 mm | - | - | - |
| 1777511797 | 28.33° C | 44% | 1030.2 hPa | 0 mm | - | - | - |
| 1777511498 | 27.78° C | 44% | 1030.3 hPa | 0 mm | - | - | - |
| 1777510302 | 28.33° C | 43% | 1030.4 hPa | 0 mm | - | - | - |
| 1777510003 | 27.78° C | 49% | 1030.4 hPa | 0 mm | - | - | - |
| 1777509704 | 26.67° C | 50% | 1030.5 hPa | 0 mm | - | - | - |
| 1777509405 | 25.56° C | 59% | 1030.5 hPa | 0 mm | - | - | - |
* Rain latest hour (hover to see other rain measurements)
** Current wind speed in m/s (hover to see current wind gust speed)